Time;durP1;ratioP1;P1;durP2;ratioP2;P2;SDS_P1;SDS_P2;PMS_P1;PMS_P2;Temp;Humidity;BMP_temperature;BMP_pressure;BME280_temperature;BME280_humidity;BME280_pressure;Samples;Min_cycle;Max_cycle;Signal;HPM_P1;HPM_P2
2023/04/27 00:25:45;;;;;;;14.73;5.55;;;;;;;;;;4923062;23;20100;-95
2023/04/27 00:54:39;;;;;;;8.73;5.15;;;;;;;;;;4928098;23;20148;-93
2023/04/27 00:57:08;;;;;;;9.07;4.90;;;;;;;;;;4883587;29;20041;-93
2023/04/27 00:59:37;;;;;;;10.63;5.07;;;;;;;;;;5185428;23;20119;-92
2023/04/27 04:32:16;;;;;;;9.60;4.60;;;;;;;;;;5950575;23;21064;31
2023/04/27 06:43:11;;;;;;;4.57;1.95;;;;;;;;;;4889556;29;20072;-93
2023/04/27 06:59:21;;;;;;;6.63;2.08;;;;;;;;;;5204024;23;20064;-93
2023/04/27 07:08:17;;;;;;;6.47;2.10;;;;;;;;;;4872826;29;20033;-96
2023/04/27 07:35:02;;;;;;;5.70;1.70;;;;;;;;;;4892392;29;20044;-93
2023/04/27 07:37:37;;;;;;;5.78;2.10;;;;;;;;;;4907832;29;20040;-94
2023/04/27 07:49:49;;;;;;;;;;;;;;;;;;;;;
2023/04/27 08:12:40;;;;;;;7.70;1.65;;;;;;;;;;5776871;23;20140;-95
2023/04/27 08:27:18;;;;;;;4.72;2.50;;;;;;;;;;4889705;29;20036;-96
2023/04/27 10:50:50;;;;;;;4.57;2.15;;;;;;;;;;4872276;29;20033;-95
2023/04/27 10:53:16;;;;;;;5.43;1.90;;;;;;;;;;4882361;29;20045;-94
2023/04/27 13:11:51;;;;;;;5.07;1.80;;;;;;;;;;4823209;29;20046;-92
2023/04/27 13:28:52;;;;;;;5.45;1.70;;;;;;;;;;4892171;29;19914;-92
2023/04/27 15:27:49;;;;;;;6.78;2.63;;;;;;;;;;4893798;29;20033;-93
2023/04/27 15:30:30;;;;;;;8.57;2.30;;;;;;;;;;4881082;29;20077;-93
2023/04/27 15:40:59;;;;;;;7.07;2.75;;;;;;;;;;4984205;24;20103;-94
2023/04/27 15:43:32;;;;;;;5.15;2.03;;;;;;;;;;4909523;29;20169;-93
2023/04/27 15:46:10;;;;;;;4.38;2.00;;;;;;;;;;5063687;23;20046;-94
2023/04/27 15:56:39;;;;;;;6.28;1.95;;;;;;;;;;5429155;23;20076;-95
2023/04/27 16:32:38;;;;;;;4.15;1.95;;;;;;;;;;5227816;23;20053;-92
2023/04/27 16:40:25;;;;;;;4.57;2.10;;;;;;;;;;5906726;23;20016;-94
2023/04/27 16:53:49;;;;;;;5.50;2.08;;;;;;;;;;5578749;23;20084;-92
2023/04/27 16:56:29;;;;;;;8.70;2.22;;;;;;;;;;4904354;29;20113;-95
2023/04/27 17:06:12;;;;;;;8.52;2.22;;;;;;;;;;4800580;29;20171;-94
2023/04/27 19:21:42;;;;;;;;;;;;;;;;;;;;;
2023/04/27 19:37:13;;;;;;;11.30;5.87;;;;;;;;;;4797230;29;20034;-96
2023/04/27 20:41:45;;;;;;;11.40;5.80;;;;;;;;;;5220622;23;20297;-95
2023/04/27 20:44:22;;;;;;;10.73;5.93;;;;;;;;;;4901926;29;20033;-93
2023/04/27 20:46:54;;;;;;;16.85;6.82;;;;;;;;;;4904767;29;20428;-96
2023/04/27 20:49:30;;;;;;;13.82;7.63;;;;;;;;;;4884511;29;20593;-94
2023/04/27 20:52:11;;;;;;;16.02;7.90;;;;;;;;;;4881153;29;20031;-94
2023/04/27 20:54:40;;;;;;;10.50;6.45;;;;;;;;;;4880706;29;20105;-94
2023/04/27 20:57:34;;;;;;;11.10;5.97;;;;;;;;;;4881172;29;20065;-95
2023/04/27 21:00:24;;;;;;;10.60;5.95;;;;;;;;;;4880592;29;20029;-95
2023/04/27 21:02:59;;;;;;;9.27;5.90;;;;;;;;;;4826894;29;20050;-94
2023/04/27 21:05:51;;;;;;;;;;;;;;;;;;;;;
2023/04/27 21:08:18;;;;;;;11.57;6.15;;;;;;;;;;4887530;29;20048;-92
2023/04/27 21:11:13;;;;;;;15.40;7.30;;;;;;;;;;4903204;29;20112;-95
2023/04/27 21:13:42;;;;;;;15.50;7.90;;;;;;;;;;4886484;29;20124;-96
2023/04/27 21:16:28;;;;;;;18.17;8.88;;;;;;;;;;4888745;29;20119;-96
2023/04/27 21:19:01;;;;;;;15.57;8.23;;;;;;;;;;4889684;29;20056;-95
2023/04/27 21:24:57;;;;;;;11.90;6.78;;;;;;;;;;4890426;29;19972;-94
2023/04/27 21:27:59;;;;;;;;;;;;;;;;;;;;;
2023/04/27 21:30:52;;;;;;;13.98;6.40;;;;;;;;;;4888503;29;20136;-94
2023/04/27 21:33:30;;;;;;;;;;;;;;;;;;;;;
2023/04/27 21:36:35;;;;;;;;;;;;;;;;;;;;;
2023/04/27 21:39:23;;;;;;;;;;;;;;;;;;;;;
2023/04/27 21:42:14;;;;;;;11.68;7.05;;;;;;;;;;4888780;29;20132;-96
2023/04/27 21:48:04;;;;;;;14.73;7.47;;;;;;;;;;4878279;29;20045;-96
2023/04/27 21:50:59;;;;;;;13.82;7.47;;;;;;;;;;4887629;29;20394;-96
2023/04/27 21:53:41;;;;;;;;;;;;;;;;;;;;;
2023/04/27 21:56:35;;;;;;;;;;;;;;;;;;;;;
2023/04/27 21:59:02;;;;;;;;;;;;;;;;;;4883444;29;20085;-95
2023/04/27 22:01:28;;;;;;;24.33;9.27;;;;;;;;;;4901200;29;19912;-94
2023/04/27 22:04:18;;;;;;;;;;;;;;;;;;;;;
2023/04/27 22:06:53;;;;;;;16.45;9.13;;;;;;;;;;4891637;29;20120;-94
2023/04/27 22:09:30;;;;;;;15.68;8.43;;;;;;;;;;4888562;29;20032;-95
2023/04/27 22:11:59;;;;;;;17.27;9.85;;;;;;;;;;4906111;29;20105;-95
2023/04/27 22:14:31;;;;;;;19.10;9.25;;;;;;;;;;4887980;29;20029;-95
2023/04/27 22:17:09;;;;;;;;;;;;;;;;;;;;;
2023/04/27 22:19:40;;;;;;;17.48;8.85;;;;;;;;;;4887616;29;20288;-96
2023/04/27 22:22:09;;;;;;;18.60;8.57;;;;;;;;;;4891903;29;20045;-95
2023/04/27 22:25:01;;;;;;;18.20;9.57;;;;;;;;;;4890711;29;20040;-95
2023/04/27 22:27:27;;;;;;;15.52;8.80;;;;;;;;;;4904829;29;20060;-94
2023/04/27 22:29:55;;;;;;;15.18;8.20;;;;;;;;;;4905172;29;20037;-94
2023/04/27 22:32:24;;;;;;;13.60;7.43;;;;;;;;;;4884185;29;20029;-94
2023/04/27 22:34:53;;;;;;;12.13;8.10;;;;;;;;;;4884906;29;20041;-96
2023/04/27 22:37:21;;;;;;;12.40;7.60;;;;;;;;;;4885539;29;20029;-96
2023/04/27 22:39:50;;;;;;;12.68;7.75;;;;;;;;;;4880984;29;20055;-95
2023/04/27 22:48:30;;;;;;;13.63;8.48;;;;;;;;;;4883881;29;20064;-96
2023/04/27 22:51:22;;;;;;;16.75;8.55;;;;;;;;;;4879319;29;20029;-95
2023/04/27 22:54:13;;;;;;;13.02;8.00;;;;;;;;;;4900161;29;20057;-96
2023/04/27 22:57:12;;;;;;;;;;;;;;;;;;;;;
2023/04/27 23:00:11;;;;;;;19.33;8.63;;;;;;;;;;4883026;29;20578;-96
2023/04/27 23:03:11;;;;;;;;;;;;;;;;;;;;;
2023/04/27 23:05:42;;;;;;;13.95;8.52;;;;;;;;;;4890752;29;20098;-95
2023/04/27 23:08:20;;;;;;;15.18;8.95;;;;;;;;;;4908627;29;20033;-96
2023/04/27 23:10:57;;;;;;;19.38;9.30;;;;;;;;;;4901550;29;20037;-95
2023/04/27 23:13:40;;;;;;;;;;;;;;;;;;;;;
2023/04/27 23:16:24;;;;;;;15.48;8.10;;;;;;;;;;4884262;29;20022;-96
2023/04/27 23:18:50;;;;;;;;;;;;;;;;;;4884002;29;20041;-95
2023/04/27 23:24:39;;;;;;;;;;;;;;;;;;;;;
2023/04/27 23:27:29;;;;;;;;;;;;;;;;;;;;;
2023/04/27 23:30:21;;;;;;;15.18;8.43;;;;;;;;;;4886461;29;20033;-95
2023/04/27 23:33:07;;;;;;;;;;;;;;;;;;;;;
2023/04/27 23:35:42;;;;;;;19.48;7.95;;;;;;;;;;4887818;29;20825;-94
2023/04/27 23:38:41;;;;;;;;;;;;;;;;;;;;;
2023/04/27 23:41:29;;;;;;;;;;;;;;;;;;;;;
2023/04/27 23:44:18;;;;;;;16.25;7.97;;;;;;;;;;4884877;29;20037;-96
2023/04/27 23:46:50;;;;;;;15.32;8.13;;;;;;;;;;4868715;29;20096;-95
2023/04/27 23:49:21;;;;;;;15.68;8.60;;;;;;;;;;4870888;29;20081;-95
2023/04/27 23:52:07;;;;;;;17.65;8.15;;;;;;;;;;4868254;29;20037;-95
2023/04/27 23:54:48;;;;;;;14.85;8.25;;;;;;;;;;4860135;29;20372;-95
2023/04/27 23:57:48;;;;;;;15.07;7.95;;;;;;;;;;4867148;29;20037;-96
